sensor_id;sensor_type;location;lat;lon;timestamp;pressure;altitude;pressure_sealevel;temperature;humidity
78485;BME280;67773;50.806;8.776;2023-04-25T00:01:02;98889.88;;;7.52;66.52
78485;BME280;67773;50.806;8.776;2023-04-25T00:03:28;98896.00;;;7.52;65.75
78485;BME280;67773;50.806;8.776;2023-04-25T00:05:54;98889.63;;;7.57;66.97
78485;BME280;67773;50.806;8.776;2023-04-25T00:08:21;98893.97;;;7.58;67.47
78485;BME280;67773;50.806;8.776;2023-04-25T00:10:47;98898.09;;;7.63;67.35
78485;BME280;67773;50.806;8.776;2023-04-25T00:13:14;98895.75;;;7.57;66.65
78485;BME280;67773;50.806;8.776;2023-04-25T00:15:40;98899.25;;;7.58;66.19
78485;BME280;67773;50.806;8.776;2023-04-25T00:18:06;98896.59;;;7.58;65.95
78485;BME280;67773;50.806;8.776;2023-04-25T00:20:32;98895.28;;;7.66;66.03
78485;BME280;67773;50.806;8.776;2023-04-25T00:22:57;98898.16;;;7.62;66.59
78485;BME280;67773;50.806;8.776;2023-04-25T00:25:22;98901.66;;;7.62;65.58
78485;BME280;67773;50.806;8.776;2023-04-25T00:27:48;98897.69;;;7.53;66.18
78485;BME280;67773;50.806;8.776;2023-04-25T00:30:14;98906.69;;;7.49;66.83
78485;BME280;67773;50.806;8.776;2023-04-25T00:32:39;98900.63;;;7.47;65.97
78485;BME280;67773;50.806;8.776;2023-04-25T00:35:04;98898.78;;;7.32;65.87
78485;BME280;67773;50.806;8.776;2023-04-25T00:37:31;98901.97;;;7.21;68.07
78485;BME280;67773;50.806;8.776;2023-04-25T00:40:00;98912.59;;;7.20;68.77
78485;BME280;67773;50.806;8.776;2023-04-25T00:42:25;98906.91;;;7.10;67.46
78485;BME280;67773;50.806;8.776;2023-04-25T00:44:52;98906.84;;;7.12;67.71
78485;BME280;67773;50.806;8.776;2023-04-25T00:47:18;98908.22;;;7.02;68.00
78485;BME280;67773;50.806;8.776;2023-04-25T00:49:43;98906.44;;;7.02;68.06
78485;BME280;67773;50.806;8.776;2023-04-25T00:52:09;98905.25;;;6.90;68.87
78485;BME280;67773;50.806;8.776;2023-04-25T00:54:35;98908.25;;;6.83;68.55
78485;BME280;67773;50.806;8.776;2023-04-25T00:57:00;98899.91;;;6.73;69.82
78485;BME280;67773;50.806;8.776;2023-04-25T00:59:27;98900.91;;;6.71;70.04
78485;BME280;67773;50.806;8.776;2023-04-25T01:01:53;98906.19;;;6.71;70.60
78485;BME280;67773;50.806;8.776;2023-04-25T01:04:18;98905.50;;;6.67;70.76
78485;BME280;67773;50.806;8.776;2023-04-25T01:06:44;98901.13;;;6.66;70.09
78485;BME280;67773;50.806;8.776;2023-04-25T01:09:10;98899.50;;;6.63;69.26
78485;BME280;67773;50.806;8.776;2023-04-25T01:11:35;98899.50;;;6.63;69.02
78485;BME280;67773;50.806;8.776;2023-04-25T01:14:01;98901.50;;;6.58;69.01
78485;BME280;67773;50.806;8.776;2023-04-25T01:16:27;98910.81;;;6.65;70.47
78485;BME280;67773;50.806;8.776;2023-04-25T01:18:53;98905.06;;;6.57;70.50
78485;BME280;67773;50.806;8.776;2023-04-25T01:21:19;98905.19;;;6.54;70.92
78485;BME280;67773;50.806;8.776;2023-04-25T01:23:44;98905.97;;;6.56;71.94
78485;BME280;67773;50.806;8.776;2023-04-25T01:26:11;98910.63;;;6.51;71.04
78485;BME280;67773;50.806;8.776;2023-04-25T01:28:38;98917.09;;;6.44;71.54
78485;BME280;67773;50.806;8.776;2023-04-25T01:31:06;98909.19;;;6.44;71.06
78485;BME280;67773;50.806;8.776;2023-04-25T01:33:31;98909.59;;;6.35;70.23
78485;BME280;67773;50.806;8.776;2023-04-25T01:35:57;98915.47;;;6.42;69.79
78485;BME280;67773;50.806;8.776;2023-04-25T01:38:22;98911.25;;;6.19;71.04
78485;BME280;67773;50.806;8.776;2023-04-25T01:40:49;98908.75;;;6.16;70.87
78485;BME280;67773;50.806;8.776;2023-04-25T01:43:16;98907.16;;;6.12;72.51
78485;BME280;67773;50.806;8.776;2023-04-25T01:45:42;98907.31;;;6.08;71.89
78485;BME280;67773;50.806;8.776;2023-04-25T01:48:08;98901.38;;;6.03;72.54
78485;BME280;67773;50.806;8.776;2023-04-25T01:50:34;98914.56;;;6.03;72.41
78485;BME280;67773;50.806;8.776;2023-04-25T01:52:59;98915.69;;;5.98;73.89
78485;BME280;67773;50.806;8.776;2023-04-25T01:55:25;98904.38;;;5.96;74.20
78485;BME280;67773;50.806;8.776;2023-04-25T01:57:51;98899.41;;;5.88;74.43
78485;BME280;67773;50.806;8.776;2023-04-25T02:00:16;98909.28;;;5.83;74.20
78485;BME280;67773;50.806;8.776;2023-04-25T02:02:42;98908.72;;;5.76;74.02
78485;BME280;67773;50.806;8.776;2023-04-25T02:05:07;98906.66;;;5.83;74.58
78485;BME280;67773;50.806;8.776;2023-04-25T02:07:32;98912.06;;;5.80;75.17
78485;BME280;67773;50.806;8.776;2023-04-25T02:09:58;98906.72;;;5.82;74.80
78485;BME280;67773;50.806;8.776;2023-04-25T02:12:23;98909.50;;;5.78;74.59
78485;BME280;67773;50.806;8.776;2023-04-25T02:14:49;98912.78;;;5.84;74.96
78485;BME280;67773;50.806;8.776;2023-04-25T02:17:15;98915.47;;;5.82;74.08
78485;BME280;67773;50.806;8.776;2023-04-25T02:19:41;98916.63;;;5.76;74.97
78485;BME280;67773;50.806;8.776;2023-04-25T02:22:06;98918.38;;;5.76;74.43
78485;BME280;67773;50.806;8.776;2023-04-25T02:24:31;98915.09;;;5.71;74.56
78485;BME280;67773;50.806;8.776;2023-04-25T02:26:58;98913.66;;;5.64;75.18
78485;BME280;67773;50.806;8.776;2023-04-25T02:29:24;98926.22;;;5.57;75.59
78485;BME280;67773;50.806;8.776;2023-04-25T02:31:49;98915.16;;;5.49;75.12
78485;BME280;67773;50.806;8.776;2023-04-25T02:34:14;98911.94;;;5.42;75.41
78485;BME280;67773;50.806;8.776;2023-04-25T02:36:40;98922.72;;;5.36;76.02
78485;BME280;67773;50.806;8.776;2023-04-25T02:39:06;98922.47;;;5.42;75.58
78485;BME280;67773;50.806;8.776;2023-04-25T02:41:31;98920.88;;;5.38;75.15
78485;BME280;67773;50.806;8.776;2023-04-25T02:43:57;98925.13;;;5.41;73.57
78485;BME280;67773;50.806;8.776;2023-04-25T02:46:22;98920.47;;;5.47;74.04
78485;BME280;67773;50.806;8.776;2023-04-25T02:48:47;98910.41;;;5.57;73.14
78485;BME280;67773;50.806;8.776;2023-04-25T02:51:13;98916.28;;;5.64;73.78
78485;BME280;67773;50.806;8.776;2023-04-25T02:53:39;98919.56;;;5.69;73.09
78485;BME280;67773;50.806;8.776;2023-04-25T02:56:04;98919.38;;;5.73;73.69
78485;BME280;67773;50.806;8.776;2023-04-25T02:58:30;98921.88;;;5.76;72.74
78485;BME280;67773;50.806;8.776;2023-04-25T03:00:55;98914.53;;;5.83;72.92
78485;BME280;67773;50.806;8.776;2023-04-25T03:03:20;98928.53;;;5.85;72.46
78485;BME280;67773;50.806;8.776;2023-04-25T03:05:49;98925.03;;;5.85;70.78
78485;BME280;67773;50.806;8.776;2023-04-25T03:08:16;98927.47;;;5.89;68.89
78485;BME280;67773;50.806;8.776;2023-04-25T03:10:42;98934.66;;;6.06;68.67
78485;BME280;67773;50.806;8.776;2023-04-25T03:13:07;98926.59;;;5.89;68.69
78485;BME280;67773;50.806;8.776;2023-04-25T03:15:32;98923.00;;;5.91;68.64
78485;BME280;67773;50.806;8.776;2023-04-25T03:17:58;98920.47;;;5.88;67.97
78485;BME280;67773;50.806;8.776;2023-04-25T03:20:23;98929.91;;;5.94;69.41
78485;BME280;67773;50.806;8.776;2023-04-25T03:22:48;98925.38;;;5.97;69.19
78485;BME280;67773;50.806;8.776;2023-04-25T03:25:14;98923.69;;;5.96;69.54
78485;BME280;67773;50.806;8.776;2023-04-25T03:27:39;98916.41;;;6.01;69.54
78485;BME280;67773;50.806;8.776;2023-04-25T03:30:05;98912.72;;;6.05;67.61
78485;BME280;67773;50.806;8.776;2023-04-25T03:32:31;98906.88;;;5.99;66.97
78485;BME280;67773;50.806;8.776;2023-04-25T03:34:57;98917.94;;;6.07;68.04
78485;BME280;67773;50.806;8.776;2023-04-25T03:37:22;98918.63;;;6.11;68.04
78485;BME280;67773;50.806;8.776;2023-04-25T03:39:47;98911.53;;;5.92;68.63
78485;BME280;67773;50.806;8.776;2023-04-25T03:42:13;98913.91;;;5.98;68.93
78485;BME280;67773;50.806;8.776;2023-04-25T03:44:38;98912.72;;;6.05;67.33
78485;BME280;67773;50.806;8.776;2023-04-25T03:47:03;98908.66;;;5.98;68.57
78485;BME280;67773;50.806;8.776;2023-04-25T03:49:29;98906.38;;;5.89;69.53
78485;BME280;67773;50.806;8.776;2023-04-25T03:51:54;98912.06;;;5.80;70.02
78485;BME280;67773;50.806;8.776;2023-04-25T03:54:19;98905.41;;;5.71;68.47
78485;BME280;67773;50.806;8.776;2023-04-25T03:56:45;98911.66;;;5.69;68.90
78485;BME280;67773;50.806;8.776;2023-04-25T03:59:10;98914.50;;;5.64;70.03
78485;BME280;67773;50.806;8.776;2023-04-25T04:01:35;98919.44;;;5.72;69.62
78485;BME280;67773;50.806;8.776;2023-04-25T04:04:01;98916.63;;;5.76;69.45
78485;BME280;67773;50.806;8.776;2023-04-25T04:06:26;98920.88;;;5.79;69.93
78485;BME280;67773;50.806;8.776;2023-04-25T04:08:52;98922.19;;;5.89;69.30
78485;BME280;67773;50.806;8.776;2023-04-25T04:11:17;98918.53;;;5.93;69.67
78485;BME280;67773;50.806;8.776;2023-04-25T04:13:42;98931.34;;;6.01;70.03
78485;BME280;67773;50.806;8.776;2023-04-25T04:16:08;98934.06;;;5.99;70.70
78485;BME280;67773;50.806;8.776;2023-04-25T04:18:33;98936.91;;;5.95;69.36
78485;BME280;67773;50.806;8.776;2023-04-25T04:20:59;98925.25;;;6.00;69.94
78485;BME280;67773;50.806;8.776;2023-04-25T04:23:24;98938.47;;;5.99;68.14
78485;BME280;67773;50.806;8.776;2023-04-25T04:25:52;98934.06;;;5.99;68.29
78485;BME280;67773;50.806;8.776;2023-04-25T04:28:18;98932.50;;;5.95;69.54
78485;BME280;67773;50.806;8.776;2023-04-25T04:30:43;98933.91;;;6.02;68.98
78485;BME280;67773;50.806;8.776;2023-04-25T04:33:11;98935.91;;;5.97;69.13
78485;BME280;67773;50.806;8.776;2023-04-25T04:35:37;98931.97;;;6.07;69.80
78485;BME280;67773;50.806;8.776;2023-04-25T04:38:03;98931.97;;;6.07;69.35
78485;BME280;67773;50.806;8.776;2023-04-25T04:40:28;98936.22;;;6.10;68.50
78485;BME280;67773;50.806;8.776;2023-04-25T04:42:56;98941.16;;;6.18;68.96
78485;BME280;67773;50.806;8.776;2023-04-25T04:45:22;98943.88;;;6.16;70.06
78485;BME280;67773;50.806;8.776;2023-04-25T04:47:48;98950.78;;;6.19;68.62
78485;BME280;67773;50.806;8.776;2023-04-25T04:50:13;98947.44;;;6.15;67.69
78485;BME280;67773;50.806;8.776;2023-04-25T04:52:40;98950.63;;;6.22;67.72
78485;BME280;67773;50.806;8.776;2023-04-25T04:55:06;98955.81;;;6.23;68.86
78485;BME280;67773;50.806;8.776;2023-04-25T04:57:32;98959.59;;;6.18;68.97
78485;BME280;67773;50.806;8.776;2023-04-25T04:59:58;98970.00;;;6.21;68.07
78485;BME280;67773;50.806;8.776;2023-04-25T05:02:24;98969.84;;;6.24;68.94
78485;BME280;67773;50.806;8.776;2023-04-25T05:04:49;98973.16;;;6.29;68.28
78485;BME280;67773;50.806;8.776;2023-04-25T05:07:16;98987.13;;;6.31;69.66
78485;BME280;67773;50.806;8.776;2023-04-25T05:09:42;98974.88;;;6.30;68.13
78485;BME280;67773;50.806;8.776;2023-04-25T05:12:07;98979.28;;;6.29;68.68
78485;BME280;67773;50.806;8.776;2023-04-25T05:14:32;98977.16;;;6.38;68.82
78485;BME280;67773;50.806;8.776;2023-04-25T05:16:58;98979.06;;;6.34;68.49
78485;BME280;67773;50.806;8.776;2023-04-25T05:19:23;98981.44;;;6.40;68.24
78485;BME280;67773;50.806;8.776;2023-04-25T05:21:49;98991.31;;;6.35;68.27
78485;BME280;67773;50.806;8.776;2023-04-25T05:24:14;98984.81;;;6.23;68.20
78485;BME280;67773;50.806;8.776;2023-04-25T05:26:40;98991.78;;;6.24;68.85
78485;BME280;67773;50.806;8.776;2023-04-25T05:29:05;98996.47;;;6.38;68.85
78485;BME280;67773;50.806;8.776;2023-04-25T05:31:31;98987.91;;;6.33;67.71
78485;BME280;67773;50.806;8.776;2023-04-25T05:33:57;98986.53;;;6.24;68.98
78485;BME280;67773;50.806;8.776;2023-04-25T05:36:22;98988.69;;;6.35;69.33
78485;BME280;67773;50.806;8.776;2023-04-25T05:38:47;98986.84;;;6.56;68.97
78485;BME280;67773;50.806;8.776;2023-04-25T05:41:13;98987.44;;;6.62;66.65
78485;BME280;67773;50.806;8.776;2023-04-25T05:43:38;98993.56;;;6.82;66.93
78485;BME280;67773;50.806;8.776;2023-04-25T05:46:04;98995.00;;;6.89;66.24
78485;BME280;67773;50.806;8.776;2023-04-25T05:48:29;98997.16;;;6.81;66.71
78485;BME280;67773;50.806;8.776;2023-04-25T05:50:55;98996.00;;;6.86;66.77
78485;BME280;67773;50.806;8.776;2023-04-25T05:53:20;98994.94;;;6.90;65.90
78485;BME280;67773;50.806;8.776;2023-04-25T05:55:47;98992.72;;;6.81;66.34
78485;BME280;67773;50.806;8.776;2023-04-25T05:58:12;99004.25;;;6.60;67.55
78485;BME280;67773;50.806;8.776;2023-04-25T06:00:37;99004.34;;;6.58;67.26
78485;BME280;67773;50.806;8.776;2023-04-25T06:03:03;99009.03;;;6.71;67.28
78485;BME280;67773;50.806;8.776;2023-04-25T06:05:28;99015.00;;;6.55;67.87
78485;BME280;67773;50.806;8.776;2023-04-25T06:07:54;99015.44;;;6.65;67.21
78485;BME280;67773;50.806;8.776;2023-04-25T06:10:19;99009.13;;;6.69;67.36
78485;BME280;67773;50.806;8.776;2023-04-25T06:12:45;99016.97;;;6.71;66.91
78485;BME280;67773;50.806;8.776;2023-04-25T06:15:10;99012.81;;;6.65;66.95
78485;BME280;67773;50.806;8.776;2023-04-25T06:17:35;99006.09;;;6.77;67.09
78485;BME280;67773;50.806;8.776;2023-04-25T06:20:01;99011.09;;;6.64;66.69
78485;BME280;67773;50.806;8.776;2023-04-25T06:22:27;99017.88;;;6.70;67.63
78485;BME280;67773;50.806;8.776;2023-04-25T06:24:52;99011.97;;;6.83;66.39
78485;BME280;67773;50.806;8.776;2023-04-25T06:27:17;99015.13;;;6.91;67.16
78485;BME280;67773;50.806;8.776;2023-04-25T06:29:43;99014.81;;;6.98;67.13
78485;BME280;67773;50.806;8.776;2023-04-25T06:32:08;99023.47;;;7.01;66.54
78485;BME280;67773;50.806;8.776;2023-04-25T06:34:33;99030.50;;;7.01;65.82
78485;BME280;67773;50.806;8.776;2023-04-25T06:36:59;99028.66;;;7.03;65.90
78485;BME280;67773;50.806;8.776;2023-04-25T06:39:24;99029.59;;;7.20;65.24
78485;BME280;67773;50.806;8.776;2023-04-25T06:41:50;99025.59;;;7.48;63.67
78485;BME280;67773;50.806;8.776;2023-04-25T06:44:16;99027.31;;;7.49;64.27
78485;BME280;67773;50.806;8.776;2023-04-25T06:46:41;99025.03;;;7.95;64.92
78485;BME280;67773;50.806;8.776;2023-04-25T06:49:06;99034.56;;;8.49;64.11
78485;BME280;67773;50.806;8.776;2023-04-25T06:51:32;99032.88;;;8.48;61.87
78485;BME280;67773;50.806;8.776;2023-04-25T06:53:57;99040.53;;;8.70;61.16
78485;BME280;67773;50.806;8.776;2023-04-25T06:56:23;99031.75;;;8.85;60.47
78485;BME280;67773;50.806;8.776;2023-04-25T06:58:48;99038.81;;;8.69;62.25
78485;BME280;67773;50.806;8.776;2023-04-25T07:01:14;99041.81;;;8.79;61.76
78485;BME280;67773;50.806;8.776;2023-04-25T07:03:39;99043.28;;;8.84;61.24
78485;BME280;67773;50.806;8.776;2023-04-25T07:06:05;99050.56;;;8.63;61.48
78485;BME280;67773;50.806;8.776;2023-04-25T07:08:30;99053.00;;;8.68;60.98
78485;BME280;67773;50.806;8.776;2023-04-25T07:10:56;99049.31;;;8.71;61.06
78485;BME280;67773;50.806;8.776;2023-04-25T07:13:21;99051.94;;;8.37;59.77
78485;BME280;67773;50.806;8.776;2023-04-25T07:15:46;99052.63;;;8.41;61.01
78485;BME280;67773;50.806;8.776;2023-04-25T07:18:13;99063.19;;;8.58;61.83
78485;BME280;67773;50.806;8.776;2023-04-25T07:20:39;99056.56;;;8.67;61.43
78485;BME280;67773;50.806;8.776;2023-04-25T07:23:04;99061.41;;;8.42;60.53
78485;BME280;67773;50.806;8.776;2023-04-25T07:25:29;99056.97;;;8.42;61.81
78485;BME280;67773;50.806;8.776;2023-04-25T07:27:55;99056.72;;;8.64;61.57
78485;BME280;67773;50.806;8.776;2023-04-25T07:30:21;99054.47;;;8.89;62.11
78485;BME280;67773;50.806;8.776;2023-04-25T07:32:46;99054.44;;;9.22;60.23
78485;BME280;67773;50.806;8.776;2023-04-25T07:35:12;99053.91;;;9.16;60.31
78485;BME280;67773;50.806;8.776;2023-04-25T07:37:37;99047.94;;;9.28;57.75
78485;BME280;67773;50.806;8.776;2023-04-25T07:40:03;99060.38;;;9.73;58.34
78485;BME280;67773;50.806;8.776;2023-04-25T07:42:29;99051.41;;;10.22;57.67
78485;BME280;67773;50.806;8.776;2023-04-25T07:44:54;99054.28;;;10.33;56.54
78485;BME280;67773;50.806;8.776;2023-04-25T07:47:20;99054.44;;;10.30;55.95
78485;BME280;67773;50.806;8.776;2023-04-25T07:49:45;99060.56;;;10.00;56.02
78485;BME280;67773;50.806;8.776;2023-04-25T07:52:11;99069.47;;;9.69;56.93
78485;BME280;67773;50.806;8.776;2023-04-25T07:54:36;99079.19;;;9.37;58.88
78485;BME280;67773;50.806;8.776;2023-04-25T07:57:01;99077.13;;;9.11;60.30
78485;BME280;67773;50.806;8.776;2023-04-25T07:59:27;99083.88;;;9.01;60.87
78485;BME280;67773;50.806;8.776;2023-04-25T08:01:52;99077.63;;;9.02;60.92
78485;BME280;67773;50.806;8.776;2023-04-25T08:04:18;99085.97;;;8.94;60.50
78485;BME280;67773;50.806;8.776;2023-04-25T08:06:43;99097.72;;;8.73;61.48
78485;BME280;67773;50.806;8.776;2023-04-25T08:09:09;99101.78;;;8.62;61.67
78485;BME280;67773;50.806;8.776;2023-04-25T08:11:35;99107.88;;;8.47;62.98
78485;BME280;67773;50.806;8.776;2023-04-25T08:14:01;99116.00;;;8.25;63.64
78485;BME280;67773;50.806;8.776;2023-04-25T08:16:27;99132.44;;;7.96;68.36
78485;BME280;67773;50.806;8.776;2023-04-25T08:18:52;99138.94;;;7.71;70.37
78485;BME280;67773;50.806;8.776;2023-04-25T08:21:17;99143.22;;;7.55;72.52
78485;BME280;67773;50.806;8.776;2023-04-25T08:23:42;99142.78;;;7.64;71.17
78485;BME280;67773;50.806;8.776;2023-04-25T08:26:08;99147.41;;;7.59;70.72
78485;BME280;67773;50.806;8.776;2023-04-25T08:28:33;99153.13;;;7.69;70.75
78485;BME280;67773;50.806;8.776;2023-04-25T08:30:59;99147.19;;;7.82;71.30
78485;BME280;67773;50.806;8.776;2023-04-25T08:33:25;99151.09;;;7.93;68.72
78485;BME280;67773;50.806;8.776;2023-04-25T08:35:50;99149.41;;;8.09;67.62
78485;BME280;67773;50.806;8.776;2023-04-25T08:38:15;99153.97;;;8.24;67.17
78485;BME280;67773;50.806;8.776;2023-04-25T08:40:43;99159.00;;;8.29;65.20
78485;BME280;67773;50.806;8.776;2023-04-25T08:43:08;99154.16;;;8.56;64.40
78485;BME280;67773;50.806;8.776;2023-04-25T08:45:39;99166.41;;;8.74;64.89
78485;BME280;67773;50.806;8.776;2023-04-25T08:48:10;99161.22;;;8.73;64.79
78485;BME280;67773;50.806;8.776;2023-04-25T08:50:40;99172.81;;;8.70;64.60
78485;BME280;67773;50.806;8.776;2023-04-25T08:53:08;99174.16;;;8.44;63.13
78485;BME280;67773;50.806;8.776;2023-04-25T08:55:37;99180.19;;;8.10;64.32
78485;BME280;67773;50.806;8.776;2023-04-25T08:58:04;99186.41;;;8.09;65.58
78485;BME280;67773;50.806;8.776;2023-04-25T09:00:30;99187.09;;;8.13;64.94
78485;BME280;67773;50.806;8.776;2023-04-25T09:02:57;99188.88;;;7.95;63.10
78485;BME280;67773;50.806;8.776;2023-04-25T09:05:22;99192.00;;;8.03;63.18
78485;BME280;67773;50.806;8.776;2023-04-25T09:07:48;99189.72;;;8.14;64.67
78485;BME280;67773;50.806;8.776;2023-04-25T09:10:13;99200.22;;;8.33;63.34
78485;BME280;67773;50.806;8.776;2023-04-25T09:12:39;99197.88;;;8.63;61.91
78485;BME280;67773;50.806;8.776;2023-04-25T09:15:11;99200.81;;;8.91;60.64
78485;BME280;67773;50.806;8.776;2023-04-25T09:17:37;99198.94;;;9.11;60.54
78485;BME280;67773;50.806;8.776;2023-04-25T09:20:10;99204.81;;;9.16;60.48
78485;BME280;67773;50.806;8.776;2023-04-25T09:22:38;99203.06;;;9.65;57.08
78485;BME280;67773;50.806;8.776;2023-04-25T09:25:11;99210.00;;;9.99;55.68
78485;BME280;67773;50.806;8.776;2023-04-25T09:27:49;99195.94;;;11.05;51.00
78485;BME280;67773;50.806;8.776;2023-04-25T09:30:15;99202.84;;;11.21;51.00
78485;BME280;67773;50.806;8.776;2023-04-25T09:32:42;99217.97;;;10.77;51.37
78485;BME280;67773;50.806;8.776;2023-04-25T09:35:09;99214.63;;;10.43;53.21
78485;BME280;67773;50.806;8.776;2023-04-25T09:37:36;99202.22;;;10.44;52.11
78485;BME280;67773;50.806;8.776;2023-04-25T09:40:05;99212.91;;;10.72;51.32
78485;BME280;67773;50.806;8.776;2023-04-25T09:42:31;99218.78;;;11.07;51.77
78485;BME280;67773;50.806;8.776;2023-04-25T09:45:01;99196.88;;;12.30;48.92
78485;BME280;67773;50.806;8.776;2023-04-25T09:47:27;99213.78;;;12.56;46.85
78485;BME280;67773;50.806;8.776;2023-04-25T09:49:54;99209.53;;;11.57;48.47
78485;BME280;67773;50.806;8.776;2023-04-25T09:52:24;99217.38;;;11.30;49.81
78485;BME280;67773;50.806;8.776;2023-04-25T09:54:51;99235.94;;;10.26;49.36
78485;BME280;67773;50.806;8.776;2023-04-25T09:57:18;99226.41;;;10.06;51.63
78485;BME280;67773;50.806;8.776;2023-04-25T09:59:54;99227.06;;;9.62;49.86
78485;BME280;67773;50.806;8.776;2023-04-25T10:02:21;99235.44;;;9.54;51.74
78485;BME280;67773;50.806;8.776;2023-04-25T10:04:49;99233.16;;;9.31;52.21
78485;BME280;67773;50.806;8.776;2023-04-25T10:07:18;99240.06;;;9.01;51.25
78485;BME280;67773;50.806;8.776;2023-04-25T10:09:48;99240.22;;;8.98;51.69
78485;BME280;67773;50.806;8.776;2023-04-25T10:12:15;99238.81;;;9.08;49.84
78485;BME280;67773;50.806;8.776;2023-04-25T10:14:42;99223.09;;;14.88;37.56
78485;BME280;67773;50.806;8.776;2023-04-25T10:17:10;99215.44;;;16.19;34.07
78485;BME280;67773;50.806;8.776;2023-04-25T10:19:36;99213.84;;;15.38;36.40
78485;BME280;67773;50.806;8.776;2023-04-25T10:22:07;99223.19;;;13.65;38.95
78485;BME280;67773;50.806;8.776;2023-04-25T10:24:35;99222.66;;;12.16;42.96
78485;BME280;67773;50.806;8.776;2023-04-25T10:27:02;99243.66;;;11.20;45.89
78485;BME280;67773;50.806;8.776;2023-04-25T10:29:27;99244.94;;;10.23;46.38
78485;BME280;67773;50.806;8.776;2023-04-25T10:31:53;99248.66;;;10.03;47.43
78485;BME280;67773;50.806;8.776;2023-04-25T10:34:19;99248.56;;;9.89;49.27
78485;BME280;67773;50.806;8.776;2023-04-25T10:36:52;99250.34;;;9.73;46.90
78485;BME280;67773;50.806;8.776;2023-04-25T10:39:22;99255.25;;;9.80;50.61
78485;BME280;67773;50.806;8.776;2023-04-25T10:44:18;99241.28;;;10.08;46.60
78485;BME280;67773;50.806;8.776;2023-04-25T10:46:45;99252.72;;;10.42;47.67
78485;BME280;67773;50.806;8.776;2023-04-25T10:49:28;99255.97;;;11.07;43.95
78485;BME280;67773;50.806;8.776;2023-04-25T10:52:26;99238.78;;;12.54;38.33
78485;BME280;67773;50.806;8.776;2023-04-25T10:54:57;99232.66;;;12.66;37.60
78485;BME280;67773;50.806;8.776;2023-04-25T10:57:29;99234.69;;;12.62;38.40
78485;BME280;67773;50.806;8.776;2023-04-25T11:02:30;99238.34;;;13.39;35.02
78485;BME280;67773;50.806;8.776;2023-04-25T11:04:56;99235.22;;;12.80;37.83
78485;BME280;67773;50.806;8.776;2023-04-25T11:07:38;99239.59;;;13.21;39.24
78485;BME280;67773;50.806;8.776;2023-04-25T11:10:04;99215.44;;;19.63;27.35
78485;BME280;67773;50.806;8.776;2023-04-25T11:12:31;99219.66;;;22.15;23.81
78485;BME280;67773;50.806;8.776;2023-04-25T11:15:04;99211.28;;;24.36;21.45
78485;BME280;67773;50.806;8.776;2023-04-25T11:17:30;99224.31;;;21.71;24.22
78485;BME280;67773;50.806;8.776;2023-04-25T11:19:56;99249.31;;;15.18;30.68
78485;BME280;67773;50.806;8.776;2023-04-25T11:22:22;99254.66;;;13.47;34.20
78485;BME280;67773;50.806;8.776;2023-04-25T11:24:47;99260.22;;;11.97;40.50
78485;BME280;67773;50.806;8.776;2023-04-25T11:27:13;99276.28;;;11.22;42.22
78485;BME280;67773;50.806;8.776;2023-04-25T11:29:38;99270.88;;;10.80;42.58
78485;BME280;67773;50.806;8.776;2023-04-25T11:32:04;99277.44;;;10.43;41.44
78485;BME280;67773;50.806;8.776;2023-04-25T11:34:31;99270.09;;;10.32;42.26
78485;BME280;67773;50.806;8.776;2023-04-25T11:36:58;99269.38;;;10.12;41.87
78485;BME280;67773;50.806;8.776;2023-04-25T11:39:25;99278.19;;;10.13;42.89
78485;BME280;67773;50.806;8.776;2023-04-25T11:41:51;99270.47;;;10.08;43.25
78485;BME280;67773;50.806;8.776;2023-04-25T11:44:17;99269.75;;;9.89;43.77
78485;BME280;67773;50.806;8.776;2023-04-25T11:46:43;99281.31;;;9.88;46.59
78485;BME280;67773;50.806;8.776;2023-04-25T11:49:09;99282.50;;;9.82;44.67
78485;BME280;67773;50.806;8.776;2023-04-25T11:51:41;99285.44;;;9.94;45.02
78485;BME280;67773;50.806;8.776;2023-04-25T11:54:07;99285.25;;;9.97;46.38
78485;BME280;67773;50.806;8.776;2023-04-25T11:56:33;99282.28;;;10.03;44.43
78485;BME280;67773;50.806;8.776;2023-04-25T11:59:03;99282.81;;;10.41;45.13
78485;BME280;67773;50.806;8.776;2023-04-25T12:01:30;99276.38;;;10.77;42.77
78485;BME280;67773;50.806;8.776;2023-04-25T12:03:57;99286.16;;;10.90;42.98
78485;BME280;67773;50.806;8.776;2023-04-25T12:06:27;99289.81;;;10.74;43.57
78485;BME280;67773;50.806;8.776;2023-04-25T12:09:03;99293.88;;;10.33;44.41
78485;BME280;67773;50.806;8.776;2023-04-25T12:11:30;99305.66;;;10.12;47.16
78485;BME280;67773;50.806;8.776;2023-04-25T12:14:01;99301.84;;;10.00;46.23
78485;BME280;67773;50.806;8.776;2023-04-25T12:16:27;99295.38;;;9.90;48.91
78485;BME280;67773;50.806;8.776;2023-04-25T12:18:52;99298.25;;;9.86;47.95
78485;BME280;67773;50.806;8.776;2023-04-25T12:21:20;99310.75;;;9.99;48.95
78485;BME280;67773;50.806;8.776;2023-04-25T12:23:45;99307.94;;;10.02;48.67
78485;BME280;67773;50.806;8.776;2023-04-25T12:26:11;99311.44;;;10.19;48.12
78485;BME280;67773;50.806;8.776;2023-04-25T12:28:36;99303.19;;;10.25;46.58
78485;BME280;67773;50.806;8.776;2023-04-25T12:31:03;99301.06;;;10.47;45.92
78485;BME280;67773;50.806;8.776;2023-04-25T12:33:31;99299.16;;;10.49;46.49
78485;BME280;67773;50.806;8.776;2023-04-25T12:35:57;99302.81;;;10.78;40.71
78485;BME280;67773;50.806;8.776;2023-04-25T12:38:30;99299.84;;;10.37;40.22
78485;BME280;67773;50.806;8.776;2023-04-25T12:40:57;99304.28;;;10.84;40.69
78485;BME280;67773;50.806;8.776;2023-04-25T12:43:23;99303.28;;;10.55;39.93
78485;BME280;67773;50.806;8.776;2023-04-25T12:45:50;99298.69;;;10.88;40.47
78485;BME280;67773;50.806;8.776;2023-04-25T12:48:16;99295.91;;;13.29;38.94
78485;BME280;67773;50.806;8.776;2023-04-25T12:50:42;99303.41;;;13.62;36.36
78485;BME280;67773;50.806;8.776;2023-04-25T12:53:07;99311.50;;;13.61;36.49
78485;BME280;67773;50.806;8.776;2023-04-25T12:55:33;99303.28;;;12.98;36.74
78485;BME280;67773;50.806;8.776;2023-04-25T12:57:58;99310.19;;;12.61;37.02
78485;BME280;67773;50.806;8.776;2023-04-25T13:00:23;99300.38;;;12.62;37.18
78485;BME280;67773;50.806;8.776;2023-04-25T13:02:49;99303.50;;;12.27;37.56
78485;BME280;67773;50.806;8.776;2023-04-25T13:05:16;99313.84;;;11.61;36.27
78485;BME280;67773;50.806;8.776;2023-04-25T13:07:41;99317.16;;;11.64;39.46